Red Bridge, Pennsylvania
Current Conditions -  °F | °C
As of 4:53 AM on Sunday 23 Nov 2014 (Local Time) from KHGR Reporting Station
Few Clouds Few Clouds  
Wind Chill: 42°   Ceiling: Unl
Heat Index: 42°   Visibility: 10mi
Dew Point: 18°   Wind: 0mph
Humidity: 38%   Direction: NA
Pressure: 30.16"   Gusts: NA
Location:  39.9438°N, 77.6827°W
Report Text: KHGR 230953Z AUTO 00000KT 10SM FEW120 06/M08 A3016 RMK AO2 SLP227 T00561078
Loading
Personal Weather Stations






























Interactive Weather Map New forecast layout! Learn more

10-Day Weather Forecast

Advertisements
Track Severe Weather on mobile